Time;durP1;ratioP1;P1;durP2;ratioP2;P2;SDS_P1;SDS_P2;PMS_P1;PMS_P2;Temp;Humidity;BMP_temperature;BMP_pressure;BME280_temperature;BME280_humidity;BME280_pressure;Samples;Min_cycle;Max_cycle;Signal;HPM_P1;HPM_P2
2022/09/01 05:30:48;;;;;;;17.13;14.23;;;13.80;99.90;;;;;;5136299;27;20297;-88
2022/09/01 05:33:18;;;;;;;19.83;15.03;;;13.80;99.90;;;;;;5136112;28;20246;-89
2022/09/01 05:35:54;;;;;;;18.30;15.27;;;13.80;99.90;;;;;;5136604;28;20662;-89
2022/09/01 05:38:21;;;;;;;16.73;14.60;;;13.80;99.90;;;;;;5136535;28;20163;-85
2022/09/01 05:40:56;;;;;;;18.10;14.47;;;13.80;99.90;;;;;;5136062;28;20191;-88
2022/09/01 05:43:26;;;;;;;16.27;14.20;;;13.80;99.90;;;;;;5137251;27;20171;-88
2022/09/01 05:45:53;;;;;;;16.13;13.57;;;13.90;99.90;;;;;;5134705;28;20175;-87
2022/09/01 05:48:52;;;;;;;17.80;14.07;;;13.80;99.90;;;;;;5135190;27;20763;-88
2022/09/01 05:52:50;;;;;;;14.70;13.00;;;13.80;99.90;;;;;;5139631;27;20267;-91
2022/09/01 05:56:52;;;;;;;14.13;12.33;;;13.90;99.90;;;;;;5136201;27;20302;-88
2022/09/01 06:00:53;;;;;;;14.70;12.63;;;14.00;99.90;;;;;;5134696;27;20283;-87
2022/09/01 06:04:55;;;;;;;15.33;12.60;;;14.00;99.90;;;;;;5134358;27;20739;-86
2022/09/01 06:08:57;;;;;;;17.37;12.60;;;14.00;99.90;;;;;;5137399;27;20274;-88
2022/09/01 06:48:29;;;;;;;10.43;9.23;;;;;;;;;;5076733;27;20551;-88
2022/09/01 06:51:00;;;;;;;9.87;8.87;;;14.60;99.90;;;;;;5073210;28;20288;-87
2022/09/01 06:53:26;;;;;;;10.27;9.17;;;14.60;99.90;;;;;;5071606;28;20158;-89
2022/09/01 06:55:52;;;;;;;11.03;9.67;;;14.60;99.90;;;;;;5072738;28;20173;-88
2022/09/01 06:58:17;;;;;;;11.80;8.80;;;14.60;99.90;;;;;;5072531;28;20180;-88
2022/09/01 07:00:43;;;;;;;11.83;9.90;;;14.60;99.90;;;;;;5071598;28;20208;-87
2022/09/01 07:03:12;;;;;;;10.80;9.03;;;14.60;99.90;;;;;;5071617;28;20209;-86
2022/09/01 07:05:40;;;;;;;12.10;9.23;;;14.60;99.90;;;;;;5071177;28;20173;-87
2022/09/01 07:08:09;;;;;;;12.90;9.80;;;14.60;99.90;;;;;;5071039;28;20239;-87
2022/09/01 07:10:43;;;;;;;9.93;8.93;;;14.60;99.90;;;;;;5070565;28;20206;-85
2022/09/01 07:13:21;;;;;;;11.37;8.60;;;14.70;99.90;;;;;;5071090;28;20167;-86
2022/09/01 07:15:48;;;;;;;14.20;9.67;;;14.80;99.90;;;;;;5070589;28;20172;-84
2022/09/01 07:18:16;;;;;;;9.27;8.13;;;14.90;99.90;;;;;;5071965;28;20177;-86
2022/09/01 07:20:43;;;;;;;9.50;7.87;;;15.10;99.90;;;;;;5073666;28;20196;-87
2022/09/01 07:23:10;;;;;;;8.63;7.47;;;15.30;99.90;;;;;;5072536;28;20177;-88
2022/09/01 07:25:42;;;;;;;7.93;7.20;;;15.50;99.90;;;;;;5071162;28;20188;-88
2022/09/01 07:28:09;;;;;;;8.00;7.00;;;15.60;99.90;;;;;;5071203;28;20291;-87
2022/09/01 07:30:42;;;;;;;15.97;7.53;;;15.80;99.90;;;;;;5073014;28;20294;-87
2022/09/01 07:33:10;;;;;;;7.40;6.70;;;15.90;99.90;;;;;;5070699;28;20168;-88
2022/09/01 07:35:38;;;;;;;7.40;6.67;;;16.00;99.90;;;;;;5071144;28;20177;-88
2022/09/01 07:38:06;;;;;;;7.30;6.60;;;16.00;99.90;;;;;;5071133;28;20722;-87
2022/09/01 07:40:37;;;;;;;7.07;6.37;;;16.10;99.90;;;;;;5070990;28;20207;-88
2022/09/01 07:43:07;;;;;;;7.80;5.90;;;16.20;99.90;;;;;;5072050;28;20227;-87
2022/09/01 07:45:35;;;;;;;6.27;5.67;;;16.30;99.90;;;;;;5071721;28;20181;-88
2022/09/01 07:48:02;;;;;;;6.33;5.73;;;16.50;99.90;;;;;;5068458;28;20613;-87
2022/09/01 07:50:28;;;;;;;7.43;5.33;;;16.70;99.90;;;;;;5072193;28;20219;-87
2022/09/01 07:52:54;;;;;;;5.67;5.17;;;16.80;99.90;;;;;;5072126;28;20214;-85
2022/09/01 07:55:20;;;;;;;6.63;5.43;;;16.90;99.90;;;;;;5073461;28;20247;-85
2022/09/01 07:57:45;;;;;;;6.03;5.43;;;17.00;99.90;;;;;;5059632;28;20178;-83
2022/09/01 08:00:14;;;;;;;5.53;5.03;;;17.20;99.90;;;;;;5042011;28;20201;-84
2022/09/01 08:02:43;;;;;;;5.40;4.90;;;17.40;99.90;;;;;;5052976;28;20208;-87
2022/09/01 08:05:16;;;;;;;5.30;4.80;;;17.80;99.90;;;;;;5065667;28;20249;-84
2022/09/01 08:07:46;;;;;;;5.00;4.50;;;18.00;99.90;;;;;;5071634;28;20198;-81
2022/09/01 08:10:12;;;;;;;5.37;4.43;;;18.00;99.90;;;;;;5065547;28;20200;-85
2022/09/01 08:12:38;;;;;;;5.47;4.97;;;18.00;99.90;;;;;;5048726;28;20174;-86
2022/09/01 08:15:07;;;;;;;5.20;4.70;;;18.10;99.90;;;;;;5054602;28;20183;-85
2022/09/01 08:17:36;;;;;;;7.40;5.27;;;18.30;99.90;;;;;;5054301;28;20182;-87
2022/09/01 08:20:05;;;;;;;5.70;5.03;;;18.50;99.90;;;;;;5039503;28;20201;-85
2022/09/01 08:22:31;;;;;;;5.70;4.47;;;18.90;99.90;;;;;;5037892;28;20179;-84
2022/09/01 08:24:57;;;;;;;5.43;4.67;;;19.30;99.90;;;;;;5039749;28;20176;-84
2022/09/01 08:27:22;;;;;;;6.80;4.50;;;19.70;99.90;;;;;;5047544;28;20266;-84
2022/09/01 08:29:48;;;;;;;4.57;4.13;;;20.00;99.90;;;;;;5058282;28;20192;-85
2022/09/01 08:32:14;;;;;;;4.47;4.07;;;20.10;99.90;;;;;;5058253;28;20209;-83
2022/09/01 08:34:42;;;;;;;4.50;4.10;;;20.00;99.90;;;;;;5058532;28;20174;-84
2022/09/01 08:37:08;;;;;;;4.23;3.80;;;19.90;99.90;;;;;;5057491;28;20182;-84
2022/09/01 08:39:33;;;;;;;4.70;3.47;;;19.70;99.90;;;;;;5058982;28;20249;-85
2022/09/01 08:42:14;;;;;;;4.33;3.73;;;19.70;99.90;;;;;;5056199;28;20230;-84
2022/09/01 08:45:06;;;;;;;3.87;3.50;;;19.80;99.90;;;;;;5056310;28;20182;-84
2022/09/01 08:47:32;;;;;;;4.77;4.33;;;20.10;99.90;;;;;;5056737;28;20201;-86
2022/09/01 08:49:59;;;;;;;4.00;3.70;;;20.10;99.90;;;;;;5054934;28;20328;-85
2022/09/01 08:52:35;;;;;;;4.67;3.87;;;19.90;99.90;;;;;;5055847;28;20173;-87
2022/09/01 08:55:37;;;;;;;3.87;3.47;;;20.00;99.90;;;;;;5055881;28;20658;-84
2022/09/01 08:58:04;;;;;;;5.13;4.00;;;20.00;99.90;;;;;;5056421;28;20602;-86
2022/09/01 09:00:42;;;;;;;4.00;3.70;;;19.90;99.90;;;;;;5056236;28;20282;-84
2022/09/01 09:03:20;;;;;;;3.50;3.20;;;20.10;99.90;;;;;;5057876;28;20158;-86
2022/09/01 09:06:19;;;;;;;4.03;3.63;;;20.40;99.90;;;;;;5058523;28;20527;-84
2022/09/01 09:08:51;;;;;;;4.40;4.00;;;20.40;99.90;;;;;;5057957;28;20642;-85
2022/09/01 09:12:11;;;;;;;4.83;4.00;;;20.40;99.90;;;;;;5055496;28;20197;-86
2022/09/01 09:15:04;;;;;;;5.20;4.10;;;20.50;99.90;;;;;;5058748;28;20200;-81
2022/09/01 09:17:38;;;;;;;3.77;3.47;;;20.10;99.90;;;;;;5056954;28;20600;-83
2022/09/01 09:20:05;;;;;;;4.87;4.07;;;19.70;99.90;;;;;;5055767;28;20626;-84
2022/09/01 09:22:31;;;;;;;4.37;4.00;;;19.60;99.90;;;;;;5056308;28;20180;-81
2022/09/01 09:25:09;;;;;;;4.73;4.33;;;19.60;99.90;;;;;;5054078;28;20205;-81
2022/09/01 09:27:38;;;;;;;5.30;4.80;;;19.80;99.90;;;;;;5038064;28;20194;-89
2022/09/01 09:30:18;;;;;;;4.53;4.13;;;20.00;99.90;;;;;;5056281;28;20200;-87
2022/09/01 09:32:54;;;;;;;6.53;3.63;;;20.00;99.90;;;;;;5059516;28;20216;-86
2022/09/01 09:35:33;;;;;;;6.97;3.60;;;20.00;99.90;;;;;;5057410;28;20197;-85
2022/09/01 09:38:29;;;;;;;9.90;3.90;;;20.10;99.90;;;;;;5057018;28;20177;-83
2022/09/01 09:40:57;;;;;;;5.00;4.50;;;20.40;99.90;;;;;;5057802;28;20729;-86
2022/09/01 09:43:23;;;;;;;5.00;4.50;;;20.40;99.90;;;;;;5058266;28;20204;-86
2022/09/01 09:45:49;;;;;;;5.67;4.33;;;20.30;99.90;;;;;;5061343;28;20173;-88
2022/09/01 09:48:30;;;;;;;4.77;4.30;;;20.50;99.90;;;;;;5056207;28;20347;-85
2022/09/01 09:51:21;;;;;;;4.63;4.23;;;20.40;99.90;;;;;;5056084;28;20201;-86
2022/09/01 09:53:48;;;;;;;4.10;3.73;;;20.00;99.90;;;;;;5056677;28;20179;-86
2022/09/01 09:56:24;;;;;;;7.63;4.17;;;19.60;99.90;;;;;;5056600;28;20173;-83
2022/09/01 09:58:52;;;;;;;4.80;4.30;;;19.50;99.90;;;;;;5058553;28;20188;-89
2022/09/01 10:01:24;;;;;;;4.77;4.30;;;19.90;99.90;;;;;;5056262;28;20225;-86
2022/09/01 10:03:53;;;;;;;4.77;4.17;;;20.60;99.90;;;;;;5058859;28;20174;-85
2022/09/01 10:06:34;;;;;;;5.17;4.03;;;20.70;99.90;;;;;;5055666;28;20227;-86
2022/09/01 10:09:02;;;;;;;4.73;3.40;;;20.70;99.90;;;;;;5058295;28;20174;-85
2022/09/01 10:11:41;;;;;;;6.03;4.07;;;20.90;99.90;;;;;;5057945;28;20198;-85
2022/09/01 10:14:18;;;;;;;3.63;3.30;;;21.30;99.90;;;;;;5057339;28;20172;-85
2022/09/01 10:16:49;;;;;;;7.07;4.10;;;21.20;99.90;;;;;;5057817;28;20201;-83
2022/09/01 10:19:15;;;;;;;4.40;4.07;;;21.30;99.90;;;;;;5062961;28;20198;-84
2022/09/01 10:21:43;;;;;;;4.63;4.10;;;21.60;99.90;;;;;;5052985;28;20197;-84
2022/09/01 10:24:39;;;;;;;3.80;3.40;;;22.30;99.90;;;;;;5043954;28;20216;-83
2022/09/01 10:27:27;;;;;;;5.20;3.43;;;22.80;99.90;;;;;;5061037;28;20312;-83
2022/09/01 10:30:13;;;;;;;3.43;3.10;;;22.90;99.90;;;;;;5061733;28;20241;-82
2022/09/01 10:32:50;;;;;;;3.40;3.10;;;22.80;99.90;;;;;;5061102;28;20181;-82
2022/09/01 10:35:22;;;;;;;3.70;3.40;;;22.50;99.90;;;;;;5060594;28;20204;-84
2022/09/01 10:37:49;;;;;;;3.43;3.10;;;22.40;99.90;;;;;;5062729;28;20185;-83
2022/09/01 10:40:17;;;;;;;3.80;3.50;;;22.40;99.90;;;;;;5060908;28;20198;-82
2022/09/01 10:42:46;;;;;;;4.13;3.30;;;22.50;99.90;;;;;;5061000;28;20185;-84
2022/09/01 10:45:31;;;;;;;3.67;3.37;;;22.30;99.90;;;;;;5063548;28;20669;-84
2022/09/01 10:48:19;;;;;;;3.30;3.10;;;22.10;99.90;;;;;;5063496;28;20228;-84
2022/09/01 10:50:46;;;;;;;3.27;2.97;;;22.10;99.90;;;;;;5069215;28;20265;-83
2022/09/01 10:53:34;;;;;;;3.20;3.00;;;22.40;99.90;;;;;;5068278;28;20181;-83
2022/09/01 10:56:22;;;;;;;3.33;3.07;;;22.60;99.90;;;;;;5068066;28;20671;-82
2022/09/01 10:59:02;;;;;;;3.20;2.90;;;23.20;99.90;;;;;;5062114;28;20178;-82
2022/09/01 11:01:59;;;;;;;5.73;3.53;;;23.50;99.90;;;;;;5061620;28;20211;-83
2022/09/01 11:04:28;;;;;;;4.00;3.10;;;23.50;99.90;;;;;;5053275;28;20598;-81
2022/09/01 11:07:00;;;;;;;4.43;3.37;;;23.80;99.90;;;;;;5042573;28;20364;-80
2022/09/01 11:09:35;;;;;;;3.67;2.83;;;23.60;99.90;;;;;;5044749;28;20214;-83
2022/09/01 11:12:28;;;;;;;4.47;3.10;;;22.60;99.90;;;;;;5051930;28;20204;-80
2022/09/01 11:15:00;;;;;;;3.60;3.30;;;22.30;99.90;;;;;;5062976;28;20188;-81
2022/09/01 11:17:55;;;;;;;2.77;2.40;;;22.60;99.90;;;;;;5065913;28;20165;-80
2022/09/01 11:20:34;;;;;;;3.40;2.40;;;22.60;99.90;;;;;;5046136;28;20212;-80
2022/09/01 11:23:23;;;;;;;3.40;3.10;;;23.30;99.90;;;;;;5061992;28;20206;-82
2022/09/01 11:25:54;;;;;;;3.37;2.80;;;24.10;99.90;;;;;;5060702;28;20154;-80
2022/09/01 11:28:24;;;;;;;4.60;3.80;;;24.50;99.90;;;;;;5057965;28;20752;-82
2022/09/01 11:30:56;;;;;;;3.83;3.43;;;24.60;99.90;;;;;;5060902;28;20208;-82
2022/09/01 11:33:41;;;;;;;5.43;3.50;;;24.60;99.90;;;;;;5063840;28;20248;-83
2022/09/01 11:36:35;;;;;;;3.53;3.23;;;24.60;99.90;;;;;;5061041;28;20189;-82
2022/09/01 11:39:13;;;;;;;3.20;2.90;;;24.10;99.90;;;;;;5048580;28;20188;-82
2022/09/01 11:41:38;;;;;;;4.33;3.23;;;23.30;99.90;;;;;;5065179;28;20167;-81
2022/09/01 11:44:20;;;;;;;3.30;3.00;;;23.20;99.90;;;;;;5063539;28;20634;-80
2022/09/01 11:46:45;;;;;;;4.50;3.33;;;23.10;99.90;;;;;;5062155;28;20300;-79
2022/09/01 11:49:28;;;;;;;3.33;3.00;;;23.10;99.90;;;;;;5056464;28;20209;-81
2022/09/01 11:51:55;;;;;;;3.80;3.50;;;23.20;99.90;;;;;;5063132;28;20180;-82
2022/09/01 11:54:22;;;;;;;4.07;3.13;;;23.20;99.90;;;;;;5064459;28;20174;-83
2022/09/01 11:56:48;;;;;;;3.33;3.03;;;24.00;99.90;;;;;;5061513;28;20187;-81
2022/09/01 11:59:14;;;;;;;3.47;3.17;;;25.20;99.90;;;;;;5057288;28;20448;-84
2022/09/01 12:01:40;;;;;;;2.90;2.70;;;25.20;99.90;;;;;;5054753;28;20181;-84
2022/09/01 12:04:30;;;;;;;3.27;2.97;;;25.70;99.90;;;;;;5062243;28;20578;-82
2022/09/01 12:07:05;;;;;;;3.13;2.80;;;26.30;99.90;;;;;;5062712;28;20197;-82
2022/09/01 12:09:46;;;;;;;3.07;2.77;;;26.50;99.90;;;;;;5060643;28;20654;-86
2022/09/01 12:12:45;;;;;;;2.87;2.53;;;26.70;99.90;;;;;;5058449;28;20269;-84
2022/09/01 12:15:22;;;;;;;2.80;2.60;;;27.10;99.90;;;;;;5071428;28;20547;-85
2022/09/01 12:17:48;;;;;;;2.90;2.50;;;27.10;99.90;;;;;;5063366;28;20192;-86
2022/09/01 12:20:44;;;;;;;3.07;2.80;;;27.10;99.90;;;;;;5061237;28;20246;-87
2022/09/01 12:23:29;;;;;;;3.40;2.40;;;26.60;99.90;;;;;;5052062;28;20196;-81
2022/09/01 12:26:01;;;;;;;3.67;2.27;;;26.20;99.90;;;;;;5057248;28;20192;-87
2022/09/01 12:28:30;;;;;;;2.63;2.43;;;25.90;99.90;;;;;;5043844;28;20655;-88
2022/09/01 12:30:58;;;;;;;2.30;2.10;;;26.00;99.90;;;;;;5057935;28;20276;-85
2022/09/01 12:33:24;;;;;;;2.50;2.30;;;25.90;99.90;;;;;;5062457;28;20644;-90
2022/09/01 12:35:51;;;;;;;6.30;2.57;;;26.00;99.90;;;;;;5061059;28;20186;-87
2022/09/01 12:38:19;;;;;;;2.77;2.57;;;26.30;99.90;;;;;;5062145;28;20174;-85
2022/09/01 12:40:56;;;;;;;2.73;1.90;;;26.40;99.90;;;;;;5046444;28;20687;-86
2022/09/01 12:43:39;;;;;;;4.37;2.83;;;26.40;99.90;;;;;;5039311;28;20162;-86
2022/09/01 12:46:09;;;;;;;2.90;2.60;;;26.30;99.90;;;;;;5049984;28;20193;-88
2022/09/01 12:48:36;;;;;;;2.70;2.43;;;26.30;99.90;;;;;;5058853;28;20158;-83
2022/09/01 12:51:23;;;;;;;3.97;2.70;;;26.50;99.90;;;;;;5058304;28;20197;-84
2022/09/01 12:53:54;;;;;;;3.23;2.70;;;26.60;99.90;;;;;;5057774;28;20174;-84
2022/09/01 12:56:34;;;;;;;2.60;2.27;;;26.50;99.90;;;;;;5059156;28;20176;-85
2022/09/01 12:59:13;;;;;;;2.40;2.20;;;25.70;99.90;;;;;;5063418;28;20160;-88
2022/09/01 13:01:40;;;;;;;2.40;2.20;;;25.70;99.90;;;;;;5063250;28;20250;-82
2022/09/01 13:04:28;;;;;;;2.70;2.40;;;26.10;99.90;;;;;;5059683;28;20170;-83
2022/09/01 13:07:05;;;;;;;4.20;2.37;;;26.50;99.90;;;;;;5055678;28;20376;-84
2022/09/01 13:09:31;;;;;;;2.80;2.03;;;26.70;99.90;;;;;;5058151;28;20170;-84
2022/09/01 13:12:19;;;;;;;2.93;2.63;;;26.70;99.90;;;;;;5058397;28;20531;-83
2022/09/01 13:14:45;;;;;;;2.70;2.50;;;26.90;99.90;;;;;;5059069;28;20165;-83
2022/09/01 13:17:11;;;;;;;4.13;2.70;;;26.20;99.90;;;;;;5058375;28;20179;-81
2022/09/01 13:19:38;;;;;;;3.03;2.73;;;25.50;99.90;;;;;;5058583;28;20287;-84
2022/09/01 13:22:04;;;;;;;2.83;2.50;;;24.40;99.90;;;;;;5057290;28;20176;-81
2022/09/01 13:24:30;;;;;;;4.47;3.00;;;24.20;99.90;;;;;;5061856;28;20178;-82
2022/09/01 13:26:56;;;;;;;2.60;2.40;;;24.90;99.90;;;;;;5057592;28;20600;-84
2022/09/01 13:29:23;;;;;;;2.90;2.63;;;24.60;99.90;;;;;;5054981;28;20188;-83
2022/09/01 13:31:48;;;;;;;4.13;2.87;;;24.50;99.90;;;;;;5055566;28;20196;-84
2022/09/01 13:34:14;;;;;;;4.90;3.07;;;23.80;99.90;;;;;;5056508;28;20178;-84
2022/09/01 13:36:40;;;;;;;4.57;2.90;;;23.20;99.90;;;;;;5056743;28;20635;-82
2022/09/01 13:39:06;;;;;;;5.70;2.90;;;23.00;99.90;;;;;;5054959;28;20176;-82
2022/09/01 13:41:32;;;;;;;3.10;2.57;;;23.70;99.90;;;;;;5056908;28;20739;-82
2022/09/01 13:43:57;;;;;;;4.00;3.00;;;24.50;99.90;;;;;;5057874;28;20204;-82
2022/09/01 13:46:23;;;;;;;4.57;2.90;;;25.00;99.90;;;;;;5059691;28;20216;-82
2022/09/01 13:48:49;;;;;;;4.03;2.17;;;25.40;99.90;;;;;;5060447;28;20168;-82
2022/09/01 13:51:26;;;;;;;4.60;2.30;;;26.40;99.90;;;;;;5056753;28;20219;-82
2022/09/01 13:53:52;;;;;;;2.20;2.00;;;27.00;99.90;;;;;;5059316;28;20196;-82
2022/09/01 13:56:17;;;;;;;4.10;2.33;;;27.70;99.90;;;;;;5058503;28;20192;-82
2022/09/01 13:58:43;;;;;;;2.37;2.17;;;28.10;99.50;;;;;;5057255;28;20178;-82
2022/09/01 14:01:09;;;;;;;4.30;2.63;;;28.40;99.90;;;;;;5056628;28;20289;-83
2022/09/01 14:03:35;;;;;;;3.73;2.47;;;28.30;97.20;;;;;;5060571;28;20169;-83
2022/09/01 14:06:00;;;;;;;2.47;2.27;;;28.30;99.90;;;;;;5058083;28;20179;-83
2022/09/01 14:08:26;;;;;;;2.40;2.10;;;28.40;99.90;;;;;;5056201;28;20233;-81
2022/09/01 14:10:53;;;;;;;2.53;2.33;;;28.80;94.50;;;;;;5057589;28;20196;-84
2022/09/01 14:13:21;;;;;;;2.80;2.07;;;28.90;97.30;;;;;;5057443;28;20179;-83
2022/09/01 14:15:48;;;;;;;2.20;2.00;;;29.00;97.60;;;;;;5056715;28;20186;-82
2022/09/01 14:18:14;;;;;;;2.60;1.93;;;29.10;95.90;;;;;;5056733;28;20180;-84
2022/09/01 14:20:44;;;;;;;4.33;2.20;;;29.30;96.00;;;;;;5055305;28;20228;-84
2022/09/01 14:23:12;;;;;;;3.47;2.03;;;29.30;99.90;;;;;;5057032;28;20184;-82
2022/09/01 14:25:42;;;;;;;2.20;1.90;;;27.90;95.00;;;;;;5057021;28;20178;-84
2022/09/01 14:28:08;;;;;;;2.27;1.90;;;26.20;97.90;;;;;;5056988;28;20191;-83
2022/09/01 14:30:34;;;;;;;3.47;2.20;;;25.20;97.50;;;;;;5057722;28;20195;-83
2022/09/01 14:33:01;;;;;;;2.33;1.80;;;25.50;97.30;;;;;;5056870;28;20541;-82
2022/09/01 14:35:27;;;;;;;2.00;1.90;;;26.60;98.90;;;;;;5056664;28;20182;-81
2022/09/01 14:37:54;;;;;;;4.23;2.00;;;;;;;;;;5055147;28;20615;-83
2022/09/01 14:40:22;;;;;;;2.33;2.07;;;26.20;97.00;;;;;;5055349;28;20292;-84
2022/09/01 14:42:51;;;;;;;1.90;1.80;;;26.10;96.10;;;;;;5056903;28;20728;-83
2022/09/01 14:45:24;;;;;;;3.87;2.30;;;25.70;97.60;;;;;;5056790;28;20200;-82
2022/09/01 14:47:52;;;;;;;2.70;2.50;;;26.40;98.80;;;;;;5054240;28;20221;-80
2022/09/01 14:50:21;;;;;;;3.70;2.10;;;27.50;96.90;;;;;;5055695;28;20270;-83
2022/09/01 14:52:49;;;;;;;2.50;2.30;;;27.70;99.60;;;;;;5055317;28;20523;-81
2022/09/01 14:55:15;;;;;;;2.33;2.07;;;27.40;94.90;;;;;;5055341;28;20209;-83
2022/09/01 14:57:41;;;;;;;2.00;1.80;;;27.30;95.20;;;;;;5055459;28;20208;-82
2022/09/01 15:00:10;;;;;;;8.30;2.07;;;26.10;95.70;;;;;;5055227;28;20204;-82
2022/09/01 15:02:38;;;;;;;2.90;1.97;;;26.20;96.00;;;;;;5054015;28;20192;-83
2022/09/01 15:05:05;;;;;;;2.70;2.20;;;26.80;95.60;;;;;;5055439;28;20180;-83
2022/09/01 15:07:30;;;;;;;3.70;2.20;;;27.40;95.30;;;;;;5053707;28;20215;-81
2022/09/01 15:09:57;;;;;;;3.53;2.17;;;27.50;93.90;;;;;;5058854;28;20267;-83
2022/09/01 15:12:23;;;;;;;2.20;2.00;;;27.50;94.10;;;;;;5057709;28;20709;-82
2022/09/01 15:14:50;;;;;;;2.43;2.00;;;27.40;95.20;;;;;;5058658;28;20585;-81
2022/09/01 15:17:15;;;;;;;2.03;1.60;;;27.20;94.70;;;;;;5058856;28;20211;-82
2022/09/01 15:19:41;;;;;;;2.77;1.83;;;27.10;95.30;;;;;;5058145;28;20197;-82
2022/09/01 15:22:09;;;;;;;2.40;2.20;;;27.10;94.50;;;;;;5058522;28;20292;-82
2022/09/01 15:24:35;;;;;;;2.40;2.20;;;26.80;93.80;;;;;;5058461;28;20704;-82
2022/09/01 15:27:01;;;;;;;2.17;1.80;;;26.50;94.40;;;;;;5057984;28;20208;-82
2022/09/01 15:29:32;;;;;;;1.50;1.40;;;25.00;94.30;;;;;;5059537;28;20173;-82
2022/09/01 15:31:59;;;;;;;5.93;1.90;;;24.90;94.50;;;;;;5058531;28;20179;-82
2022/09/01 15:34:26;;;;;;;1.87;1.77;;;23.80;95.80;;;;;;5060046;28;20222;-85
2022/09/01 15:36:52;;;;;;;3.10;1.90;;;;;;;;;;5060746;28;20198;-82
2022/09/01 15:39:17;;;;;;;2.17;1.87;;;24.30;98.40;;;;;;5059374;28;20186;-82
2022/09/01 15:41:44;;;;;;;3.47;1.80;;;24.50;96.40;;;;;;5059272;28;20184;-83
2022/09/01 15:44:10;;;;;;;2.47;2.17;;;24.50;96.80;;;;;;5066815;28;20217;-81
2022/09/01 15:46:37;;;;;;;2.13;1.93;;;23.80;96.70;;;;;;5068240;28;20211;-82
2022/09/01 15:49:09;;;;;;;3.50;2.00;;;23.30;98.00;;;;;;5058634;28;20256;-83
2022/09/01 15:51:40;;;;;;;2.60;1.77;;;22.70;99.90;;;;;;5058254;28;20636;-83
2022/09/01 15:54:18;;;;;;;3.03;1.67;;;22.10;99.90;;;;;;5059081;28;20164;-83
2022/09/01 15:56:46;;;;;;;2.40;2.00;;;21.60;99.90;;;;;;5058966;28;20166;-82
2022/09/01 15:59:12;;;;;;;2.23;2.03;;;21.20;99.90;;;;;;5057399;28;20208;-83
2022/09/01 16:01:41;;;;;;;3.10;2.20;;;20.90;99.90;;;;;;5058230;28;20185;-82
2022/09/01 16:04:10;;;;;;;2.40;2.20;;;20.80;99.90;;;;;;5058789;28;20549;-84
2022/09/01 16:06:37;;;;;;;2.50;2.20;;;20.60;99.90;;;;;;5057259;28;20210;-81
2022/09/01 16:09:05;;;;;;;2.33;2.10;;;20.50;99.90;;;;;;5058399;28;20172;-82
2022/09/01 16:11:31;;;;;;;3.37;2.03;;;20.20;99.90;;;;;;5060501;28;20189;-82
2022/09/01 16:13:57;;;;;;;3.53;2.47;;;20.10;99.90;;;;;;5060039;28;20177;-84
2022/09/01 16:16:39;;;;;;;5.40;2.60;;;19.90;99.90;;;;;;5060060;28;20227;-81
2022/09/01 16:19:30;;;;;;;2.87;2.40;;;19.70;99.90;;;;;;5062585;28;20158;-83
2022/09/01 16:22:08;;;;;;;3.40;2.47;;;19.70;99.90;;;;;;5065414;28;20170;-82
2022/09/01 16:24:41;;;;;;;2.93;2.27;;;19.60;99.90;;;;;;5060876;28;20173;-81
2022/09/01 16:27:12;;;;;;;2.90;2.70;;;19.50;99.90;;;;;;5060883;28;20194;-82
2022/09/01 16:29:54;;;;;;;2.93;2.27;;;19.30;99.90;;;;;;5060117;28;20207;-82
2022/09/01 16:32:22;;;;;;;5.57;2.50;;;19.30;99.90;;;;;;5063498;28;20172;-81
2022/09/01 16:34:52;;;;;;;2.50;2.17;;;19.20;99.90;;;;;;5067184;28;20174;-81
2022/09/01 16:37:44;;;;;;;2.90;2.20;;;19.10;99.90;;;;;;5063503;28;20182;-81
2022/09/01 16:40:34;;;;;;;2.83;2.03;;;18.90;99.90;;;;;;5056752;28;20234;-83
2022/09/01 16:43:33;;;;;;;3.10;2.27;;;18.80;99.90;;;;;;5058482;28;20182;-82
2022/09/01 16:46:25;;;;;;;3.13;2.40;;;18.70;99.90;;;;;;5059312;28;20195;-82
2022/09/01 16:49:16;;;;;;;3.17;2.20;;;18.60;99.90;;;;;;5057772;28;20178;-81
2022/09/01 16:51:45;;;;;;;3.23;2.50;;;18.50;99.90;;;;;;5060323;28;20168;-83
2022/09/01 16:54:23;;;;;;;3.03;2.33;;;18.50;99.90;;;;;;5059644;28;20635;-84
2022/09/01 16:57:05;;;;;;;3.20;2.40;;;18.40;99.90;;;;;;5055710;28;20170;-85
2022/09/01 16:59:44;;;;;;;2.97;2.20;;;18.30;99.90;;;;;;5055997;28;20167;-83
2022/09/01 17:02:36;;;;;;;7.17;2.37;;;18.30;99.90;;;;;;5058279;28;20678;-84
2022/09/01 17:05:26;;;;;;;3.17;2.30;;;18.20;99.90;;;;;;5057831;28;20151;-83
2022/09/01 17:08:22;;;;;;;3.70;2.50;;;18.10;99.90;;;;;;5055574;28;20233;-82
2022/09/01 17:11:06;;;;;;;2.50;2.30;;;18.10;99.90;;;;;;5056803;28;20186;-82
2022/09/01 17:13:43;;;;;;;4.00;2.33;;;18.10;99.90;;;;;;5057523;28;20154;-82
2022/09/01 17:16:37;;;;;;;3.67;2.60;;;18.00;99.90;;;;;;5057139;28;20146;-82
2022/09/01 17:19:11;;;;;;;2.40;2.20;;;18.00;99.90;;;;;;5058984;28;20553;-82
2022/09/01 17:21:51;;;;;;;4.20;3.47;;;17.90;99.90;;;;;;5055919;28;20569;-82
2022/09/01 17:24:37;;;;;;;4.83;3.40;;;17.90;99.90;;;;;;5058871;28;20231;-82
2022/09/01 17:27:37;;;;;;;2.70;2.33;;;17.90;99.90;;;;;;5059482;28;20202;-81
2022/09/01 17:30:05;;;;;;;3.13;2.83;;;17.80;99.90;;;;;;5058149;28;20201;-84
2022/09/01 17:32:42;;;;;;;2.57;2.37;;;17.80;99.90;;;;;;5055859;28;20200;-83
2022/09/01 17:35:38;;;;;;;3.97;2.60;;;17.80;99.90;;;;;;5057374;28;20165;-82
2022/09/01 17:38:26;;;;;;;2.87;2.37;;;17.70;99.90;;;;;;5056448;28;20265;-83
2022/09/01 17:40:55;;;;;;;5.23;2.50;;;17.70;99.90;;;;;;5058090;28;20185;-83
2022/09/01 17:43:50;;;;;;;3.23;2.83;;;17.70;99.90;;;;;;5056537;28;20178;-82
2022/09/01 17:46:16;;;;;;;3.47;2.77;;;17.60;99.90;;;;;;5056476;28;20178;-82
2022/09/01 17:48:51;;;;;;;3.13;2.80;;;17.50;99.90;;;;;;5056370;28;20185;-82
2022/09/01 17:51:45;;;;;;;3.20;2.70;;;17.40;99.90;;;;;;5060856;28;20246;-81
2022/09/01 17:54:48;;;;;;;6.80;3.10;;;17.40;99.90;;;;;;5062055;28;20210;-82
2022/09/01 17:57:16;;;;;;;3.27;2.80;;;17.30;99.90;;;;;;5062372;28;20175;-80
2022/09/01 17:59:49;;;;;;;4.67;2.90;;;17.10;99.90;;;;;;5064390;28;20533;-89
2022/09/01 18:02:35;;;;;;;7.10;3.47;;;17.10;99.90;;;;;;5061072;28;20202;-81
2022/09/01 18:05:14;;;;;;;7.67;3.30;;;17.00;99.90;;;;;;5058372;28;20193;-82
2022/09/01 18:08:01;;;;;;;5.53;3.80;;;16.90;99.90;;;;;;5056870;28;20189;-85
2022/09/01 18:10:46;;;;;;;6.50;3.77;;;16.80;99.90;;;;;;5055953;28;20667;-85
2022/09/01 18:13:25;;;;;;;5.23;3.70;;;16.70;99.90;;;;;;5055478;28;20177;-84
2022/09/01 18:15:53;;;;;;;5.90;3.60;;;16.60;99.90;;;;;;5055402;28;20184;-85
2022/09/01 18:18:33;;;;;;;5.07;3.90;;;16.50;99.90;;;;;;5055756;28;20181;-83
2022/09/01 18:21:05;;;;;;;5.80;4.30;;;16.40;99.90;;;;;;5057260;28;20198;-83
2022/09/01 18:23:36;;;;;;;5.50;3.90;;;16.30;99.90;;;;;;5056928;28;20182;-83
2022/09/01 18:26:16;;;;;;;5.77;4.53;;;16.30;99.90;;;;;;5056360;28;20184;-83
2022/09/01 18:28:42;;;;;;;6.17;4.53;;;16.20;99.90;;;;;;5056669;28;20209;-82
2022/09/01 18:31:33;;;;;;;4.13;3.73;;;16.10;99.90;;;;;;5057530;28;20251;-83
2022/09/01 18:34:17;;;;;;;6.07;4.50;;;16.10;99.90;;;;;;5057380;28;20185;-85
2022/09/01 18:37:03;;;;;;;4.17;3.77;;;16.00;99.90;;;;;;5057690;28;20205;-83
2022/09/01 18:40:00;;;;;;;6.43;3.67;;;16.00;99.90;;;;;;5057325;28;20640;-84
2022/09/01 18:42:52;;;;;;;7.33;3.70;;;15.80;99.90;;;;;;5055743;28;20181;-85
2022/09/01 18:45:53;;;;;;;4.57;3.40;;;15.80;99.90;;;;;;5057087;28;20174;-84
2022/09/01 18:48:18;;;;;;;3.70;3.33;;;15.70;99.90;;;;;;5055348;28;20718;-83
2022/09/01 18:50:59;;;;;;;5.63;4.00;;;15.70;99.90;;;;;;5056079;28;20201;-84
2022/09/01 18:53:58;;;;;;;5.33;3.70;;;15.60;99.90;;;;;;5057122;28;20658;-83
2022/09/01 18:56:53;;;;;;;4.20;3.80;;;15.60;99.90;;;;;;5057923;28;20178;-85
2022/09/01 18:59:27;;;;;;;5.33;3.90;;;15.50;99.90;;;;;;5058848;28;20169;-84
2022/09/01 19:02:05;;;;;;;4.20;3.60;;;15.50;99.90;;;;;;5059119;28;20177;-84
2022/09/01 19:04:36;;;;;;;4.70;3.87;;;15.40;99.90;;;;;;5059242;28;20177;-85
2022/09/01 19:07:23;;;;;;;4.77;4.17;;;15.40;99.90;;;;;;5057497;28;20212;-85
2022/09/01 19:10:06;;;;;;;8.10;3.77;;;15.30;99.90;;;;;;5058001;28;20198;-84
2022/09/01 19:12:57;;;;;;;4.67;4.20;;;15.20;99.90;;;;;;5056543;28;20209;-84
2022/09/01 19:15:49;;;;;;;4.60;4.13;;;15.10;99.90;;;;;;5057195;28;20260;-84
2022/09/01 19:18:40;;;;;;;4.23;3.83;;;15.10;99.90;;;;;;5056674;28;20182;-83
2022/09/01 19:21:15;;;;;;;4.20;3.80;;;15.00;99.90;;;;;;5057809;28;20255;-85
2022/09/01 19:24:00;;;;;;;7.07;4.23;;;15.00;99.90;;;;;;5056438;28;20177;-83
2022/09/01 19:26:30;;;;;;;9.13;3.77;;;14.90;99.90;;;;;;5056269;28;20188;-84
2022/09/01 19:29:08;;;;;;;4.87;4.13;;;14.90;99.90;;;;;;5058382;28;20647;-84
2022/09/01 19:31:41;;;;;;;7.00;4.07;;;14.80;99.90;;;;;;5061300;28;20268;-83
2022/09/01 19:34:13;;;;;;;4.87;4.10;;;14.70;99.90;;;;;;5057282;28;20260;-84
2022/09/01 19:36:47;;;;;;;7.33;4.23;;;14.70;99.90;;;;;;5055031;28;20700;-84